Hovedside
METAR-TAF:

METAR-TAF

Lufthavner :

Namsos lufthavn

Namsos, Norge

breddegrad: 64-28N, lengdegrad: 011-35E, høyde over havet: 0 m

Gjeldene værobservasjon

Denne rapporten ble laget for 1 time og 5 minutter siden, klokken 18:50 UTC
Vind 7 kt fra Øst-nordøst
Temperatur 16°C
Luftfuktighet 100%
Trykk 1002 hPa
Sikt 10 km eller mer
Få skyer i en høyde av 2000 ft
Få skyer i en høyde av 5000 ft
Brutte skyer i en høyde av 8000 ft

METAR: ENNM 161850Z 06007KT 9999 FEW020 FEW050 BKN080 16/16 Q1002

Tid: 21:55 (19:55 UTC)


TAF: fraværende

Værobservasjoner og værvarsel for over 4000 flyplasser (METAR- og TAF-rapporter).

Tilgjengelige stasjoner er representert av de røde og gule prikkene på kartet.

Hold musepekeren over prikken for å se navnet på stasjonen.

Klikk så for å se værobservasjoner og -varsler.

For å forandre kartet kan du klikke på den grønne knappen med svart kryss for å zoome inn, på den grønne knappen med strek for å zoome ut, eller på de grønne pilene for å se tilstøtende kart.


METAR-TAF: